createdAt,value
2022-08-28T00:01:56.197Z,24.59
2022-08-28T00:16:58.810Z,24.45
2022-08-28T00:32:01.076Z,24.21
2022-08-28T00:47:03.806Z,23.99
2022-08-28T01:02:07.483Z,23.78
2022-08-28T01:17:11.309Z,23.79
2022-08-28T01:32:14.365Z,23.83
2022-08-28T01:47:17.017Z,23.74
2022-08-28T02:02:18.959Z,23.60
2022-08-28T02:17:21.479Z,23.50
2022-08-28T02:32:23.743Z,23.40
2022-08-28T02:47:26.435Z,23.18
2022-08-28T03:02:28.642Z,23.18
2022-08-28T03:17:32.437Z,23.24
2022-08-28T03:32:35.747Z,23.28
2022-08-28T03:47:39.741Z,23.37
2022-08-28T04:02:43.219Z,23.43
2022-08-28T04:17:45.615Z,23.41
2022-08-28T04:32:47.963Z,23.51
2022-08-28T04:47:50.557Z,23.93
2022-08-28T05:02:52.695Z,24.60
2022-08-28T05:17:55.615Z,25.46
2022-08-28T05:32:57.680Z,26.51
2022-08-28T05:47:59.742Z,27.05
2022-08-28T06:03:01.779Z,27.14
2022-08-28T06:18:04.422Z,27.25
2022-08-28T06:33:08.123Z,28.17
2022-08-28T06:48:12.182Z,29.20
2022-08-28T07:03:14.298Z,30.11
2022-08-28T07:18:20.342Z,31.18
2022-08-28T07:33:22.373Z,31.50
2022-08-28T07:48:25.331Z,31.17
2022-08-28T08:03:30.435Z,31.94
2022-08-28T08:18:34.244Z,31.92
2022-08-28T08:33:39.114Z,32.96
2022-08-28T08:48:46.140Z,33.96
2022-08-28T09:03:56.254Z,33.73
2022-08-28T09:19:00.390Z,34.50
2022-08-28T09:34:38.099Z,34.97
2022-08-28T09:49:40.980Z,34.32
2022-08-28T10:04:46.170Z,34.81
2022-08-28T10:20:05.500Z,35.29
2022-08-28T10:35:28.379Z,35.39
2022-08-28T10:50:44.143Z,35.39
2022-08-28T11:05:53.932Z,35.19
2022-08-28T11:21:20.864Z,34.91
2022-08-28T11:36:22.665Z,34.70
2022-08-28T11:51:36.501Z,33.84
2022-08-28T12:07:13.810Z,33.20
2022-08-28T12:22:23.078Z,32.91
2022-08-28T12:37:53.883Z,32.26
2022-08-28T12:53:00.112Z,32.34
2022-08-28T13:08:07.226Z,32.39
2022-08-28T13:23:28.151Z,32.54
2022-08-28T13:38:30.060Z,32.44
2022-08-28T13:53:33.269Z,32.38
2022-08-28T14:08:35.360Z,31.97
2022-08-28T14:23:37.547Z,32.03
2022-08-28T14:38:39.510Z,32.05
2022-08-28T14:53:41.557Z,31.74
2022-08-28T15:08:43.523Z,31.49
2022-08-28T15:23:46.155Z,31.27
2022-08-28T15:39:06.766Z,31.09
2022-08-28T15:54:08.660Z,30.82
2022-08-28T16:09:11.622Z,30.56
2022-08-28T16:24:13.716Z,29.92
2022-08-28T16:39:17.143Z,28.90
2022-08-28T16:54:19.628Z,28.32
2022-08-28T17:09:21.506Z,27.89
2022-08-28T17:24:23.718Z,27.58
2022-08-28T17:39:25.883Z,27.20
2022-08-28T17:54:28.357Z,26.88
2022-08-28T18:09:30.313Z,26.54
2022-08-28T18:24:32.561Z,26.16
2022-08-28T18:39:36.067Z,25.94
2022-08-28T18:54:38.087Z,25.59
2022-08-28T19:09:41.155Z,25.29
2022-08-28T19:24:43.654Z,25.23
2022-08-28T19:39:55.992Z,25.00
2022-08-28T19:54:58.465Z,24.73
2022-08-28T20:10:03.090Z,24.49
2022-08-28T20:25:07.055Z,24.48
2022-08-28T20:40:10.149Z,24.39
2022-08-28T20:55:13.837Z,24.15
2022-08-28T21:10:15.830Z,24.02
2022-08-28T21:25:20.878Z,23.97
2022-08-28T21:40:22.929Z,23.82
2022-08-28T21:55:25.175Z,23.60
2022-08-28T22:10:27.508Z,23.36
2022-08-28T22:25:29.584Z,23.23
2022-08-28T22:40:31.520Z,23.14
2022-08-28T22:55:34.027Z,23.12
2022-08-28T23:10:55.600Z,23.03
2022-08-28T23:25:58.169Z,22.88
2022-08-28T23:41:00.624Z,22.77
2022-08-28T23:56:02.763Z,22.66
